Time;durP1;ratioP1;P1;durP2;ratioP2;P2;SDS_P1;SDS_P2;PMS_P1;PMS_P2;Temp;Humidity;BMP_temperature;BMP_pressure;BME280_temperature;BME280_humidity;BME280_pressure;Samples;Min_cycle;Max_cycle;Signal;HPM_P1;HPM_P2
2021/12/02 00:02:07;;;;;;;3.55;1.30;;;;;;;;;;5051494;28;20454;-76
2021/12/02 00:04:37;;;;;;;3.13;1.40;;;;;;;;;;5052334;28;20071;-76
2021/12/02 00:07:06;;;;;;;3.00;1.23;;;;;;;;;;5051817;28;20087;-76
2021/12/02 00:09:33;;;;;;;2.40;1.25;;;;;;;;;;5051325;28;20290;-76
2021/12/02 00:12:00;;;;;;;2.45;1.20;;;;;;;;;;5055563;28;20056;-76
2021/12/02 00:14:29;;;;;;;3.13;1.40;;;;;;;;;;5055253;28;20095;-76
2021/12/02 00:17:08;;;;;;;2.67;1.40;;;;;;;;;;5055330;28;20123;-77
2021/12/02 00:22:26;;;;;;;3.10;1.38;;;;;;;;;;5055352;28;20071;-76
2021/12/02 00:24:59;;;;;;;2.78;1.50;;;;;;;;;;5054995;28;20561;-76
2021/12/02 00:27:29;;;;;;;2.40;1.30;;;;;;;;;;5055288;28;20110;-76
2021/12/02 00:29:58;;;;;;;2.97;1.40;;;;;;;;;;5056958;28;20465;-75
2021/12/02 00:32:27;;;;;;;4.30;1.88;;;;;;;;;;5056229;28;20045;-74
2021/12/02 00:34:57;;;;;;;2.42;1.40;;;;;;;;;;5056361;28;20059;-75
2021/12/02 00:37:26;;;;;;;2.55;1.25;;;;;;;;;;5056461;28;20045;-75
2021/12/02 00:39:53;;;;;;;2.90;1.35;;;;;;;;;;5055122;28;20131;-75
2021/12/02 00:42:20;;;;;;;2.67;1.20;;;;;;;;;;5055360;28;20056;-75
2021/12/02 00:44:47;;;;;;;3.15;1.60;;;;;;;;;;5054635;28;20102;-76
2021/12/02 00:47:15;;;;;;;2.72;1.30;;;;;;;;;;5054749;28;20049;-77
2021/12/02 00:49:45;;;;;;;2.50;1.40;;;;;;;;;;5054393;28;20041;-76
2021/12/02 00:52:15;;;;;;;2.70;0.95;;;;;;;;;;5054665;28;20049;-76
2021/12/02 00:54:43;;;;;;;1.83;1.08;;;;;;;;;;5054245;28;20092;-76
2021/12/02 00:57:12;;;;;;;2.30;1.13;;;;;;;;;;5054530;28;20045;-76
2021/12/02 00:59:40;;;;;;;1.83;0.90;;;;;;;;;;5054005;28;20059;-76
2021/12/02 01:02:09;;;;;;;2.35;1.08;;;;;;;;;;5054697;28;20094;-76
2021/12/02 01:04:35;;;;;;;2.25;1.10;;;;;;;;;;5054323;28;20132;-76
2021/12/02 01:07:03;;;;;;;1.70;0.88;;;;;;;;;;5054378;28;20099;-76
2021/12/02 01:09:31;;;;;;;2.50;1.20;;;;;;;;;;5053893;28;20053;-76
2021/12/02 01:11:58;;;;;;;3.13;1.13;;;;;;;;;;5054165;28;20053;-76
2021/12/02 01:14:25;;;;;;;2.20;1.05;;;;;;;;;;5053987;28;20045;-76
2021/12/02 01:16:52;;;;;;;3.22;1.30;;;;;;;;;;5054075;28;20491;-76
2021/12/02 01:19:19;;;;;;;1.77;0.98;;;;;;;;;;5053776;28;20426;-76
2021/12/02 01:21:47;;;;;;;2.28;1.10;;;;;;;;;;5052891;28;20052;-76
2021/12/02 01:24:16;;;;;;;1.92;1.15;;;;;;;;;;5054059;28;20075;-76
2021/12/02 01:26:51;;;;;;;2.70;1.00;;;;;;;;;;5053883;28;20045;-75
2021/12/02 01:29:19;;;;;;;4.25;1.20;;;;;;;;;;5053643;28;20132;-76
2021/12/02 01:31:51;;;;;;;2.78;1.13;;;;;;;;;;5054352;28;20056;-76
2021/12/02 01:34:22;;;;;;;3.13;1.42;;;;;;;;;;5053811;28;20045;-76
2021/12/02 01:36:51;;;;;;;1.85;0.85;;;;;;;;;;5054078;28;20052;-75
2021/12/02 01:39:18;;;;;;;1.95;1.15;;;;;;;;;;5053554;28;20052;-76
2021/12/02 01:41:47;;;;;;;2.60;1.00;;;;;;;;;;5054120;28;20045;-77
2021/12/02 01:44:16;;;;;;;2.42;1.10;;;;;;;;;;5053932;28;20457;-77
2021/12/02 01:46:44;;;;;;;2.05;0.90;;;;;;;;;;5053897;28;20052;-75
2021/12/02 01:49:13;;;;;;;1.90;0.95;;;;;;;;;;5053116;28;20507;-76
2021/12/02 01:51:42;;;;;;;2.85;1.20;;;;;;;;;;5053452;28;20052;-76
2021/12/02 01:54:11;;;;;;;2.88;1.15;;;;;;;;;;5053357;28;20049;-76
2021/12/02 01:56:44;;;;;;;3.13;1.20;;;;;;;;;;5053442;28;20045;-76
2021/12/02 01:59:15;;;;;;;1.80;1.00;;;;;;;;;;5053073;28;20056;-76
2021/12/02 02:01:44;;;;;;;2.22;1.00;;;;;;;;;;5053229;28;20048;-76
2021/12/02 02:04:11;;;;;;;3.40;1.00;;;;;;;;;;5053010;28;20049;-76
2021/12/02 02:06:40;;;;;;;3.53;1.20;;;;;;;;;;5052921;28;20048;-76
2021/12/02 02:09:08;;;;;;;2.42;0.85;;;;;;;;;;5052600;28;20407;-76
2021/12/02 02:11:35;;;;;;;1.77;0.90;;;;;;;;;;5052872;28;20044;-76
2021/12/02 02:14:05;;;;;;;2.22;1.17;;;;;;;;;;5052823;28;20110;-76
2021/12/02 02:16:34;;;;;;;2.35;0.98;;;;;;;;;;5052512;28;20045;-76
2021/12/02 02:19:00;;;;;;;2.28;0.93;;;;;;;;;;5052779;28;20051;-75
2021/12/02 02:21:31;;;;;;;2.97;1.00;;;;;;;;;;5053097;28;20103;-76
2021/12/02 02:24:00;;;;;;;2.38;1.15;;;;;;;;;;5053528;28;20052;-76
2021/12/02 02:26:31;;;;;;;2.58;1.30;;;;;;;;;;5053175;28;20045;-75
2021/12/02 02:28:59;;;;;;;3.10;1.10;;;;;;;;;;5053035;28;20056;-76
2021/12/02 02:31:28;;;;;;;2.22;1.15;;;;;;;;;;5053314;28;20411;-76
2021/12/02 02:33:55;;;;;;;3.50;1.50;;;;;;;;;;5053403;28;20087;-77
2021/12/02 02:36:24;;;;;;;4.53;2.10;;;;;;;;;;5052765;28;20063;-76
2021/12/02 02:38:56;;;;;;;2.78;1.45;;;;;;;;;;5052442;28;20051;-76
2021/12/02 02:41:25;;;;;;;4.05;1.92;;;;;;;;;;5052702;28;20055;-76
2021/12/02 02:43:55;;;;;;;4.03;1.30;;;;;;;;;;5053056;28;20048;-75
2021/12/02 02:46:24;;;;;;;2.10;1.10;;;;;;;;;;5052490;28;20079;-75
2021/12/02 02:48:51;;;;;;;2.92;1.35;;;;;;;;;;5052321;28;20130;-76
2021/12/02 02:51:18;;;;;;;3.88;1.52;;;;;;;;;;5052229;28;20392;-76
2021/12/02 02:53:48;;;;;;;3.35;1.40;;;;;;;;;;5054357;28;20071;-76
2021/12/02 02:56:18;;;;;;;3.97;1.67;;;;;;;;;;5065004;28;20499;-77
2021/12/02 02:59:01;;;;;;;3.87;1.67;;;;;;;;;;5054588;28;20048;-77
2021/12/02 03:01:46;;;;;;;4.60;1.95;;;;;;;;;;5053766;28;20051;-77
2021/12/02 03:04:25;;;;;;;3.90;1.60;;;;;;;;;;5053861;28;20104;-77
2021/12/02 03:06:55;;;;;;;4.25;1.83;;;;;;;;;;5053616;28;20055;-77
2021/12/02 03:09:39;;;;;;;4.05;1.70;;;;;;;;;;5052747;28;20057;-77
2021/12/02 03:12:13;;;;;;;3.20;1.83;;;;;;;;;;5053318;28;20045;-76
2021/12/02 03:14:53;;;;;;;3.45;1.45;;;;;;;;;;5054515;28;20049;-77
2021/12/02 03:17:19;;;;;;;2.38;1.48;;;;;;;;;;5055560;28;20048;-77
2021/12/02 03:19:47;;;;;;;1.88;0.80;;;;;;;;;;5054731;28;20068;-77
2021/12/02 03:22:15;;;;;;;0.77;0.50;;;;;;;;;;5053375;28;20426;-77
2021/12/02 03:24:42;;;;;;;1.15;0.50;;;;;;;;;;5054352;28;20079;-76
2021/12/02 03:27:10;;;;;;;1.20;0.60;;;;;;;;;;5053972;28;20384;-77
2021/12/02 03:29:37;;;;;;;1.38;0.47;;;;;;;;;;5053810;28;20095;-77
2021/12/02 03:32:04;;;;;;;1.42;0.63;;;;;;;;;;5053637;28;20049;-76
2021/12/02 03:34:31;;;;;;;1.73;0.60;;;;;;;;;;5053306;28;20091;-77
2021/12/02 03:36:58;;;;;;;1.00;0.57;;;;;;;;;;5053083;28;20559;-76
2021/12/02 03:39:25;;;;;;;1.40;0.60;;;;;;;;;;5052365;28;20454;-77
2021/12/02 03:41:53;;;;;;;2.47;0.60;;;;;;;;;;5052699;28;20048;-77
2021/12/02 03:44:22;;;;;;;1.67;0.60;;;;;;;;;;5053288;28;20052;-77
2021/12/02 03:46:50;;;;;;;1.02;0.57;;;;;;;;;;5058030;28;20052;-77
2021/12/02 03:49:17;;;;;;;1.88;0.75;;;;;;;;;;5058383;28;20491;-77
2021/12/02 03:51:44;;;;;;;1.48;0.57;;;;;;;;;;5058618;28;20049;-76
2021/12/02 03:54:10;;;;;;;3.60;0.77;;;;;;;;;;5058362;28;20397;-75
2021/12/02 03:56:37;;;;;;;2.38;0.85;;;;;;;;;;5058816;28;20053;-75
2021/12/02 03:59:04;;;;;;;2.95;0.60;;;;;;;;;;5058876;28;20045;-75
2021/12/02 04:01:32;;;;;;;2.25;0.93;;;;;;;;;;5057174;28;20044;-75
2021/12/02 04:03:59;;;;;;;2.53;0.60;;;;;;;;;;5055799;28;20122;-76
2021/12/02 04:06:26;;;;;;;1.80;0.80;;;;;;;;;;5055447;28;20049;-76
2021/12/02 04:08:56;;;;;;;1.20;0.50;;;;;;;;;;5055119;28;20126;-76
2021/12/02 04:11:29;;;;;;;1.88;0.73;;;;;;;;;;5055600;28;20451;-76
2021/12/02 04:14:05;;;;;;;1.65;0.60;;;;;;;;;;5055575;28;20045;-76
2021/12/02 04:16:36;;;;;;;3.08;0.60;;;;;;;;;;5055382;28;20423;-75
2021/12/02 04:19:04;;;;;;;3.92;0.70;;;;;;;;;;5054771;28;20518;-76
2021/12/02 04:21:31;;;;;;;1.13;0.60;;;;;;;;;;5055208;28;20107;-75
2021/12/02 04:23:58;;;;;;;1.52;0.80;;;;;;;;;;5055291;28;20118;-75
2021/12/02 04:26:25;;;;;;;2.40;0.68;;;;;;;;;;5055084;28;20573;-75
2021/12/02 04:28:52;;;;;;;3.08;0.93;;;;;;;;;;5054846;28;20049;-76
2021/12/02 04:31:19;;;;;;;4.00;0.80;;;;;;;;;;5055262;28;20041;-76
2021/12/02 04:33:47;;;;;;;1.75;0.90;;;;;;;;;;5055141;28;20049;-76
2021/12/02 04:36:14;;;;;;;1.77;0.90;;;;;;;;;;5055365;28;20049;-76
2021/12/02 04:38:41;;;;;;;2.05;0.82;;;;;;;;;;5054469;28;20099;-75
2021/12/02 04:41:08;;;;;;;1.60;0.70;;;;;;;;;;5055080;28;20520;-76
2021/12/02 04:43:34;;;;;;;2.75;0.80;;;;;;;;;;5054868;28;20044;-76
2021/12/02 04:46:01;;;;;;;1.25;0.80;;;;;;;;;;5054790;28;20049;-76
2021/12/02 04:48:28;;;;;;;2.22;1.13;;;;;;;;;;5054461;28;20132;-75
2021/12/02 04:50:56;;;;;;;3.00;0.80;;;;;;;;;;5054549;28;20098;-76
2021/12/02 04:53:23;;;;;;;4.35;1.55;;;;;;;;;;5054655;28;20106;-76
2021/12/02 04:55:50;;;;;;;3.17;1.05;;;;;;;;;;5054267;28;20041;-75
2021/12/02 04:58:17;;;;;;;1.90;0.85;;;;;;;;;;5054575;28;20099;-75
2021/12/02 05:00:43;;;;;;;2.78;0.80;;;;;;;;;;5054798;28;20084;-75
2021/12/02 05:03:10;;;;;;;2.53;1.00;;;;;;;;;;5054453;28;20569;-75
2021/12/02 05:05:37;;;;;;;3.13;0.98;;;;;;;;;;5054254;28;20049;-76
2021/12/02 05:08:05;;;;;;;3.17;1.02;;;;;;;;;;5054040;28;20098;-76
2021/12/02 05:10:32;;;;;;;2.22;1.00;;;;;;;;;;5054559;28;20052;-75
2021/12/02 05:12:59;;;;;;;2.42;1.05;;;;;;;;;;5054480;28;20048;-75
2021/12/02 05:15:26;;;;;;;4.63;1.17;;;;;;;;;;5054046;28;20095;-75
2021/12/02 05:17:53;;;;;;;3.70;1.40;;;;;;;;;;5053996;28;20504;-76
2021/12/02 05:20:20;;;;;;;1.92;0.90;;;;;;;;;;5054453;28;20053;-75
2021/12/02 05:22:47;;;;;;;4.00;1.42;;;;;;;;;;5054074;28;20490;-75
2021/12/02 05:25:16;;;;;;;3.90;1.23;;;;;;;;;;5087464;22;20057;-68
2021/12/02 05:27:43;;;;;;;3.20;1.40;;;;;;;;;;5053473;28;20135;-67
2021/12/02 05:30:11;;;;;;;3.00;1.25;;;;;;;;;;5054598;28;20147;-66
2021/12/02 05:32:38;;;;;;;3.13;1.30;;;;;;;;;;5054044;28;20063;-65
2021/12/02 05:35:06;;;;;;;3.80;1.30;;;;;;;;;;5054072;28;20409;-65
2021/12/02 05:37:33;;;;;;;5.30;1.38;;;;;;;;;;5053699;28;20055;-65
2021/12/02 05:40:01;;;;;;;4.18;1.70;;;;;;;;;;5054037;28;20048;-66
2021/12/02 05:42:30;;;;;;;3.88;1.80;;;;;;;;;;5054403;28;20127;-66
2021/12/02 05:44:56;;;;;;;3.08;1.50;;;;;;;;;;5053628;28;20048;-65
2021/12/02 05:47:23;;;;;;;4.72;1.77;;;;;;;;;;5053884;28;20045;-68
2021/12/02 05:49:50;;;;;;;3.00;1.55;;;;;;;;;;5053721;28;20060;-68
2021/12/02 05:52:18;;;;;;;4.10;2.00;;;;;;;;;;5053775;28;20059;-65
2021/12/02 05:54:45;;;;;;;3.38;1.70;;;;;;;;;;5053340;28;20053;-67
2021/12/02 05:57:12;;;;;;;4.03;2.10;;;;;;;;;;5053497;28;20137;-67
2021/12/02 05:59:40;;;;;;;4.40;1.90;;;;;;;;;;5053157;28;20059;-67
2021/12/02 06:02:07;;;;;;;4.30;1.80;;;;;;;;;;5053707;28;20045;-67
2021/12/02 06:04:37;;;;;;;9.27;2.17;;;;;;;;;;5054080;28;20098;-67
2021/12/02 06:07:04;;;;;;;3.15;1.52;;;;;;;;;;5053971;28;20548;-67
2021/12/02 06:09:31;;;;;;;4.20;2.00;;;;;;;;;;5053497;28;20052;-68
2021/12/02 06:11:58;;;;;;;3.53;1.73;;;;;;;;;;5054090;28;20060;-67
2021/12/02 06:14:25;;;;;;;4.07;2.10;;;;;;;;;;5053775;28;20049;-67
2021/12/02 06:16:54;;;;;;;5.82;1.80;;;;;;;;;;5053781;28;20520;-67
2021/12/02 06:19:21;;;;;;;4.60;1.88;;;;;;;;;;5053411;28;20470;-68
2021/12/02 06:21:50;;;;;;;3.63;2.03;;;;;;;;;;5053066;28;20417;-65
2021/12/02 06:24:17;;;;;;;3.05;1.50;;;;;;;;;;5053748;28;20575;-65
2021/12/02 06:26:44;;;;;;;4.90;1.70;;;;;;;;;;5053304;28;20097;-65
2021/12/02 06:29:11;;;;;;;3.45;1.63;;;;;;;;;;5053605;28;20049;-65
2021/12/02 06:31:38;;;;;;;4.95;1.80;;;;;;;;;;5052953;28;20060;-65
2021/12/02 06:34:07;;;;;;;5.57;1.63;;;;;;;;;;5053358;28;20056;-65
2021/12/02 06:36:36;;;;;;;2.83;1.45;;;;;;;;;;5052949;28;20107;-68
2021/12/02 06:39:04;;;;;;;3.33;1.52;;;;;;;;;;5052521;28;20049;-68
2021/12/02 06:41:31;;;;;;;4.28;1.67;;;;;;;;;;5053502;28;20055;-65
2021/12/02 06:43:58;;;;;;;3.15;1.50;;;;;;;;;;5053148;28;20053;-67
2021/12/02 06:46:25;;;;;;;4.40;1.67;;;;;;;;;;5053136;28;20053;-65
2021/12/02 06:48:52;;;;;;;3.08;1.60;;;;;;;;;;5052949;28;20052;-68
2021/12/02 06:51:20;;;;;;;4.63;1.65;;;;;;;;;;5052959;28;20045;-67
2021/12/02 06:53:49;;;;;;;3.88;1.33;;;;;;;;;;5052927;28;20055;-68
2021/12/02 06:56:16;;;;;;;3.50;2.15;;;;;;;;;;5052645;28;20049;-65
2021/12/02 06:58:42;;;;;;;3.17;1.70;;;;;;;;;;5052824;28;20072;-66
2021/12/02 07:01:09;;;;;;;2.97;1.23;;;;;;;;;;5052603;28;20067;-66
2021/12/02 07:03:36;;;;;;;4.10;1.67;;;;;;;;;;5052935;28;20053;-65
2021/12/02 07:06:03;;;;;;;4.65;1.30;;;;;;;;;;5052936;28;20056;-65
2021/12/02 07:08:32;;;;;;;3.60;1.48;;;;;;;;;;5052343;28;20060;-66
2021/12/02 07:11:00;;;;;;;4.75;1.40;;;;;;;;;;5052644;28;20049;-66
2021/12/02 07:13:27;;;;;;;3.28;1.20;;;;;;;;;;5052337;28;20068;-67
2021/12/02 07:15:56;;;;;;;3.63;1.70;;;;;;;;;;5052785;28;20482;-67
2021/12/02 07:18:24;;;;;;;5.72;1.95;;;;;;;;;;5051988;28;20139;-67
2021/12/02 07:20:52;;;;;;;6.07;2.15;;;;;;;;;;5052295;28;20148;-66
2021/12/02 07:23:20;;;;;;;3.45;1.65;;;;;;;;;;5052407;28;20509;-67
2021/12/02 07:25:49;;;;;;;4.40;1.70;;;;;;;;;;5052129;28;20124;-66
2021/12/02 07:28:18;;;;;;;3.65;1.55;;;;;;;;;;5051790;28;20431;-66
2021/12/02 07:30:51;;;;;;;4.00;1.63;;;;;;;;;;5052511;28;20114;-66
2021/12/02 07:33:19;;;;;;;7.13;2.28;;;;;;;;;;5051881;28;20128;-66
2021/12/02 07:35:46;;;;;;;2.85;1.40;;;;;;;;;;5051922;28;20045;-66
2021/12/02 07:38:14;;;;;;;3.53;1.50;;;;;;;;;;5051736;28;20049;-66
2021/12/02 07:40:41;;;;;;;4.38;1.60;;;;;;;;;;5052182;28;20147;-67
2021/12/02 07:43:09;;;;;;;3.38;1.33;;;;;;;;;;5052131;28;20199;-67
2021/12/02 07:45:36;;;;;;;2.95;1.63;;;;;;;;;;5051870;28;20053;-67
2021/12/02 07:48:04;;;;;;;3.03;1.23;;;;;;;;;;5051762;28;20405;-66
2021/12/02 07:50:32;;;;;;;3.95;1.35;;;;;;;;;;5052435;28;20398;-67
2021/12/02 07:53:01;;;;;;;3.47;1.50;;;;;;;;;;5051924;28;20055;-67
2021/12/02 07:55:30;;;;;;;2.90;1.30;;;;;;;;;;5051749;28;20055;-66
2021/12/02 07:57:58;;;;;;;3.65;1.40;;;;;;;;;;5051735;28;20049;-67
2021/12/02 08:00:28;;;;;;;4.68;1.45;;;;;;;;;;5051869;28;20113;-66
2021/12/02 08:02:56;;;;;;;2.60;1.40;;;;;;;;;;5053766;28;20108;-67
2021/12/02 08:05:26;;;;;;;2.95;1.35;;;;;;;;;;5052181;28;20060;-67
2021/12/02 08:07:55;;;;;;;3.88;1.45;;;;;;;;;;5019441;28;20046;-67
2021/12/02 08:10:23;;;;;;;3.88;1.45;;;;;;;;;;5011655;28;20072;-66
2021/12/02 08:12:51;;;;;;;3.38;1.50;;;;;;;;;;5013631;28;20084;-67
2021/12/02 08:15:20;;;;;;;5.00;1.83;;;;;;;;;;5013919;28;20058;-67
2021/12/02 08:17:50;;;;;;;4.45;1.48;;;;;;;;;;5014536;28;20061;-67
2021/12/02 08:20:18;;;;;;;4.07;1.65;;;;;;;;;;5013880;28;20057;-66
2021/12/02 08:22:45;;;;;;;4.32;1.27;;;;;;;;;;5015237;28;20112;-67
2021/12/02 08:25:12;;;;;;;4.38;1.60;;;;;;;;;;5015430;28;20484;-66
2021/12/02 08:27:40;;;;;;;4.40;1.45;;;;;;;;;;5014236;28;20048;-67
2021/12/02 08:30:09;;;;;;;5.60;1.83;;;;;;;;;;5010140;28;20312;-67
2021/12/02 08:32:38;;;;;;;2.40;1.20;;;;;;;;;;5017706;28;20704;-66
2021/12/02 08:35:07;;;;;;;5.72;1.73;;;;;;;;;;5017282;28;20062;-66
2021/12/02 08:37:37;;;;;;;3.15;1.45;;;;;;;;;;5019649;28;20108;-66
2021/12/02 08:40:05;;;;;;;3.33;1.63;;;;;;;;;;5017751;28;20050;-66
2021/12/02 08:42:32;;;;;;;6.68;1.80;;;;;;;;;;5019192;28;20057;-66
2021/12/02 08:45:00;;;;;;;3.28;1.48;;;;;;;;;;5017605;28;20058;-66
2021/12/02 08:47:28;;;;;;;5.45;1.95;;;;;;;;;;5018950;28;20085;-66
2021/12/02 08:49:55;;;;;;;3.85;1.30;;;;;;;;;;5018354;28;20061;-67
2021/12/02 08:52:26;;;;;;;4.20;1.40;;;;;;;;;;5017943;28;20049;-67
2021/12/02 08:54:53;;;;;;;5.97;1.52;;;;;;;;;;5018099;28;20054;-67
2021/12/02 08:57:22;;;;;;;2.88;1.33;;;;;;;;;;5018212;28;20075;-66
2021/12/02 08:59:50;;;;;;;3.45;1.35;;;;;;;;;;5017344;28;20053;-66
2021/12/02 09:02:18;;;;;;;2.55;1.40;;;;;;;;;;5017138;28;20046;-66
2021/12/02 09:04:45;;;;;;;2.65;1.17;;;;;;;;;;5017924;28;20058;-67
2021/12/02 09:07:12;;;;;;;3.22;1.48;;;;;;;;;;5017171;28;20139;-66
2021/12/02 09:09:40;;;;;;;3.85;1.55;;;;;;;;;;5016518;28;20065;-67
2021/12/02 09:12:08;;;;;;;3.50;1.30;;;;;;;;;;5017517;28;20141;-66
2021/12/02 09:14:36;;;;;;;3.90;1.33;;;;;;;;;;5017691;28;20521;-67
2021/12/02 09:17:04;;;;;;;4.43;2.25;;;;;;;;;;5018537;28;20434;-67
2021/12/02 09:19:31;;;;;;;3.88;1.65;;;;;;;;;;5017576;28;20574;-67
2021/12/02 09:21:58;;;;;;;5.22;1.42;;;;;;;;;;5017253;28;20054;-67
2021/12/02 09:24:25;;;;;;;4.15;1.52;;;;;;;;;;5018055;28;20050;-67
2021/12/02 09:26:55;;;;;;;3.17;1.20;;;;;;;;;;5016461;28;20045;-67
2021/12/02 09:29:23;;;;;;;3.97;1.60;;;;;;;;;;5017549;28;20105;-67
2021/12/02 09:31:52;;;;;;;3.53;1.25;;;;;;;;;;5017490;28;20523;-66
2021/12/02 09:34:19;;;;;;;4.43;1.58;;;;;;;;;;5018753;28;20503;-66
2021/12/02 09:36:46;;;;;;;8.57;2.60;;;;;;;;;;5017184;28;20072;-69
2021/12/02 09:39:14;;;;;;;3.15;1.40;;;;;;;;;;5017572;28;20077;-67
2021/12/02 09:41:42;;;;;;;4.55;1.60;;;;;;;;;;5018180;28;20100;-69
2021/12/02 09:44:11;;;;;;;3.30;1.20;;;;;;;;;;5016428;28;20050;-66
2021/12/02 09:46:40;;;;;;;3.38;1.25;;;;;;;;;;5016216;28;20395;-66
2021/12/02 09:49:08;;;;;;;2.90;1.27;;;;;;;;;;5017494;28;20083;-66
2021/12/02 09:51:44;;;;;;;3.13;1.27;;;;;;;;;;5017117;28;20068;-66
2021/12/02 09:54:15;;;;;;;6.45;1.50;;;;;;;;;;5017860;28;20056;-67
2021/12/02 09:56:44;;;;;;;4.60;1.48;;;;;;;;;;5015429;28;20130;-66
2021/12/02 09:59:24;;;;;;;3.78;1.35;;;;;;;;;;5016352;28;20355;-67
2021/12/02 10:01:53;;;;;;;2.97;1.30;;;;;;;;;;5016834;28;20054;-66
2021/12/02 10:04:22;;;;;;;3.45;1.38;;;;;;;;;;5017141;28;20042;-66
2021/12/02 10:06:49;;;;;;;3.42;1.10;;;;;;;;;;5015704;28;20049;-66
2021/12/02 10:09:22;;;;;;;2.45;1.30;;;;;;;;;;5016711;28;20690;-66
2021/12/02 10:11:53;;;;;;;3.00;1.02;;;;;;;;;;5016497;28;20061;-66
2021/12/02 10:14:25;;;;;;;3.65;1.20;;;;;;;;;;5016980;28;20053;-66
2021/12/02 10:17:07;;;;;;;3.88;1.30;;;;;;;;;;5017739;28;20480;-67
2021/12/02 10:19:34;;;;;;;3.40;1.30;;;;;;;;;;5016527;28;20144;-66
2021/12/02 10:22:05;;;;;;;5.65;1.58;;;;;;;;;;5017333;28;20053;-66
2021/12/02 10:24:32;;;;;;;4.10;2.10;;;;;;;;;;5017211;28;20085;-66
2021/12/02 10:27:02;;;;;;;4.20;1.33;;;;;;;;;;5016745;28;20063;-66
2021/12/02 10:29:32;;;;;;;2.17;0.90;;;;;;;;;;5016768;28;20041;-66
2021/12/02 10:32:08;;;;;;;7.20;1.65;;;;;;;;;;5017372;28;20085;-66
2021/12/02 10:34:48;;;;;;;3.42;1.27;;;;;;;;;;5018813;28;20057;-66
2021/12/02 10:37:17;;;;;;;4.90;1.50;;;;;;;;;;5016386;28;20081;-65
2021/12/02 10:39:55;;;;;;;3.72;1.30;;;;;;;;;;5016703;28;20141;-66
2021/12/02 10:42:23;;;;;;;5.70;2.03;;;;;;;;;;5015752;28;20133;-66
2021/12/02 10:44:54;;;;;;;4.85;1.88;;;;;;;;;;5015764;28;20053;-66
2021/12/02 10:47:23;;;;;;;4.70;1.73;;;;;;;;;;5017991;28;20586;-66
2021/12/02 10:49:52;;;;;;;4.22;1.77;;;;;;;;;;5018942;28;20057;-66
2021/12/02 10:52:25;;;;;;;6.25;1.80;;;;;;;;;;5013900;28;20095;-66
2021/12/02 10:54:58;;;;;;;4.88;1.80;;;;;;;;;;5015207;28;20052;-67
2021/12/02 10:57:27;;;;;;;4.18;1.90;;;;;;;;;;5014961;28;20574;-67
2021/12/02 10:59:57;;;;;;;5.30;1.75;;;;;;;;;;5014787;28;20050;-67
2021/12/02 11:02:27;;;;;;;3.65;1.50;;;;;;;;;;5015646;28;20127;-67
2021/12/02 11:04:58;;;;;;;4.88;1.58;;;;;;;;;;5015508;28;20068;-66
2021/12/02 11:07:29;;;;;;;4.28;1.27;;;;;;;;;;5017450;28;20062;-67
2021/12/02 11:09:56;;;;;;;;;;;;;;;;;;5015973;28;20451;-67
2021/12/02 11:12:26;;;;;;;4.13;1.17;;;;;;;;;;5014988;28;19929;-67
2021/12/02 11:15:11;;;;;;;4.18;1.83;;;;;;;;;;5015461;28;20429;-67
2021/12/02 11:17:42;;;;;;;3.92;1.23;;;;;;;;;;5012989;28;20092;-67
2021/12/02 11:20:12;;;;;;;3.42;1.40;;;;;;;;;;5017170;28;20141;-67
2021/12/02 11:22:39;;;;;;;3.90;1.23;;;;;;;;;;5017465;28;20629;-74
2021/12/02 11:25:10;;;;;;;3.30;1.40;;;;;;;;;;5014951;28;20076;-66
2021/12/02 11:27:40;;;;;;;5.13;1.38;;;;;;;;;;5026519;23;20045;-67
2021/12/02 11:30:12;;;;;;;2.78;1.40;;;;;;;;;;5010740;28;20124;-64
2021/12/02 11:32:43;;;;;;;4.72;1.30;;;;;;;;;;5011297;28;20057;-64
2021/12/02 11:35:13;;;;;;;5.10;1.55;;;;;;;;;;5010032;28;20474;-64
2021/12/02 11:37:42;;;;;;;9.07;1.70;;;;;;;;;;5009815;28;20050;-64
2021/12/02 11:40:14;;;;;;;2.90;1.50;;;;;;;;;;4991249;28;20050;-62
2021/12/02 11:42:42;;;;;;;4.60;1.45;;;;;;;;;;5006804;28;20054;-62
2021/12/02 11:45:12;;;;;;;3.60;1.25;;;;;;;;;;5009333;28;20134;-62
2021/12/02 11:47:40;;;;;;;3.63;1.40;;;;;;;;;;5010636;28;20054;-61
2021/12/02 11:50:08;;;;;;;4.38;1.50;;;;;;;;;;5010789;28;20499;-61
2021/12/02 11:52:37;;;;;;;3.38;1.20;;;;;;;;;;5010346;28;20414;-65
2021/12/02 11:55:08;;;;;;;6.10;1.30;;;;;;;;;;5010473;28;20546;-63
2021/12/02 11:57:35;;;;;;;5.43;1.35;;;;;;;;;;5010408;28;20045;-63
2021/12/02 12:00:05;;;;;;;4.28;1.50;;;;;;;;;;5010154;28;20081;-63
2021/12/02 12:02:34;;;;;;;5.93;1.50;;;;;;;;;;5010228;28;20445;-62
2021/12/02 12:05:03;;;;;;;2.38;1.27;;;;;;;;;;5009675;28;20436;-62
2021/12/02 12:07:42;;;;;;;3.63;1.05;;;;;;;;;;5013494;28;20123;-61
2021/12/02 12:10:34;;;;;;;6.78;1.40;;;;;;;;;;5013932;28;20057;-61
2021/12/02 12:13:20;;;;;;;4.65;1.20;;;;;;;;;;5009951;28;20057;-62
2021/12/02 12:15:52;;;;;;;3.13;1.17;;;;;;;;;;5013966;28;20100;-63
2021/12/02 12:18:39;;;;;;;2.50;1.20;;;;;;;;;;5013746;28;20072;-62
2021/12/02 12:21:11;;;;;;;4.60;1.50;;;;;;;;;;5013901;28;20046;-62
2021/12/02 12:23:56;;;;;;;3.33;1.42;;;;;;;;;;5013470;28;20060;-62
2021/12/02 12:26:35;;;;;;;4.03;1.63;;;;;;;;;;5013186;28;20092;-62
2021/12/02 12:29:20;;;;;;;4.72;1.55;;;;;;;;;;5013326;28;20141;-63
2021/12/02 12:32:31;;;;;;;3.03;1.48;;;;;;;;;;5012905;28;20072;-62
2021/12/02 12:35:03;;;;;;;5.07;1.60;;;;;;;;;;5013421;28;20054;-62
2021/12/02 12:40:27;;;;;;;5.13;1.60;;;;;;;;;;5013160;28;20056;-62
2021/12/02 12:43:19;;;;;;;4.57;1.90;;;;;;;;;;5013248;28;20442;-62
2021/12/02 12:45:46;;;;;;;5.45;1.48;;;;;;;;;;5012920;28;20056;-59
2021/12/02 12:48:28;;;;;;;2.20;1.35;;;;;;;;;;5009816;28;20171;-59
2021/12/02 12:51:10;;;;;;;1.63;1.00;;;;;;;;;;5009148;28;20495;-60
2021/12/02 12:53:38;;;;;;;3.33;1.25;;;;;;;;;;5014916;28;20109;-59
2021/12/02 12:56:09;;;;;;;4.38;1.23;;;;;;;;;;5009713;28;20056;-60
2021/12/02 12:58:38;;;;;;;2.60;0.95;;;;;;;;;;5009385;28;20046;-60
2021/12/02 13:01:07;;;;;;;2.78;1.10;;;;;;;;;;5008467;28;20064;-59
2021/12/02 13:03:43;;;;;;;3.38;1.20;;;;;;;;;;5008986;28;20045;-60
2021/12/02 13:06:17;;;;;;;3.72;1.10;;;;;;;;;;5009368;28;20060;-58
2021/12/02 13:08:46;;;;;;;4.45;1.23;;;;;;;;;;5008821;28;20411;-59
2021/12/02 13:11:16;;;;;;;3.22;1.40;;;;;;;;;;5008941;28;20168;-59
2021/12/02 13:13:44;;;;;;;3.28;1.00;;;;;;;;;;5009662;28;20054;-59
2021/12/02 13:16:32;;;;;;;2.95;0.93;;;;;;;;;;5008687;28;20042;-60
2021/12/02 13:19:01;;;;;;;2.67;0.90;;;;;;;;;;5009960;28;20395;-59
2021/12/02 13:21:35;;;;;;;1.75;0.82;;;;;;;;;;5009326;28;20574;-59
2021/12/02 13:24:05;;;;;;;2.70;1.10;;;;;;;;;;5013396;28;20454;-60
2021/12/02 13:26:35;;;;;;;2.87;1.23;;;;;;;;;;5016178;28;20418;-59
2021/12/02 13:29:08;;;;;;;3.70;1.05;;;;;;;;;;5011779;28;20132;-57
2021/12/02 13:31:36;;;;;;;2.95;1.10;;;;;;;;;;5011722;28;20042;-60
2021/12/02 13:34:06;;;;;;;2.75;1.10;;;;;;;;;;5013163;28;20041;-60
2021/12/02 13:36:38;;;;;;;2.88;0.90;;;;;;;;;;5011386;28;20050;-58
2021/12/02 13:39:11;;;;;;;2.00;0.73;;;;;;;;;;5010762;28;20189;-59
2021/12/02 13:41:40;;;;;;;2.38;0.80;;;;;;;;;;5010279;28;20085;-59
2021/12/02 13:44:12;;;;;;;3.00;1.08;;;;;;;;;;5009618;28;20046;-58
2021/12/02 13:46:45;;;;;;;5.78;1.10;;;;;;;;;;5008457;28;20050;-62
2021/12/02 13:49:16;;;;;;;4.60;1.70;;;;;;;;;;5007402;28;20494;-60
2021/12/02 13:54:40;;;;;;;2.80;1.00;;;;;;;;;;5011419;28;20099;-64
2021/12/02 13:57:40;;;;;;;3.15;1.00;;;;;;;;;;5009228;28;20050;-65
2021/12/02 14:00:10;;;;;;;3.17;1.10;;;;;;;;;;4927479;29;20107;-62
2021/12/02 14:02:37;;;;;;;3.63;1.30;;;;;;;;;;4991574;28;20046;-60
2021/12/02 14:05:07;;;;;;;2.58;1.10;;;;;;;;;;5007365;28;20053;-62
2021/12/02 14:07:38;;;;;;;2.55;1.20;;;;;;;;;;5007763;28;20068;-61
2021/12/02 14:10:08;;;;;;;3.70;1.35;;;;;;;;;;5007271;28;20069;-60
2021/12/02 14:12:42;;;;;;;5.85;1.85;;;;;;;;;;5013782;28;20479;-60
2021/12/02 14:15:12;;;;;;;5.72;1.30;;;;;;;;;;5007588;28;20054;-61
2021/12/02 14:17:54;;;;;;;2.95;1.25;;;;;;;;;;5007308;28;20502;-59
2021/12/02 14:20:23;;;;;;;3.65;1.13;;;;;;;;;;5014611;28;20061;-61
2021/12/02 14:22:55;;;;;;;2.53;1.15;;;;;;;;;;5009029;28;20058;-60
2021/12/02 14:25:24;;;;;;;4.00;1.60;;;;;;;;;;5006582;28;20054;-61
2021/12/02 14:28:09;;;;;;;3.80;1.15;;;;;;;;;;5007046;28;20058;-59
2021/12/02 14:30:39;;;;;;;2.90;1.40;;;;;;;;;;5007389;28;20124;-61
2021/12/02 14:33:07;;;;;;;;;;;;;;;;;;5008649;28;20041;-61
2021/12/02 14:35:44;;;;;;;2.30;1.10;;;;;;;;;;4990417;28;20019;-62
2021/12/02 14:38:23;;;;;;;2.92;1.30;;;;;;;;;;5007063;28;20269;-62
2021/12/02 14:40:56;;;;;;;1.85;0.80;;;;;;;;;;5007282;28;20141;-62
2021/12/02 14:43:25;;;;;;;1.13;0.60;;;;;;;;;;5007335;28;20060;-61
2021/12/02 14:46:12;;;;;;;1.55;0.70;;;;;;;;;;5006961;28;20410;-62
2021/12/02 14:48:39;;;;;;;1.90;0.77;;;;;;;;;;5006585;28;20066;-62
2021/12/02 14:51:08;;;;;;;2.55;0.88;;;;;;;;;;5007205;28;20053;-62
2021/12/02 14:53:39;;;;;;;1.60;0.70;;;;;;;;;;5007260;28;20084;-61
2021/12/02 14:56:28;;;;;;;1.05;0.70;;;;;;;;;;5007402;28;20514;-61
2021/12/02 14:59:26;;;;;;;2.28;0.60;;;;;;;;;;5007282;28;20451;-62
2021/12/02 15:02:08;;;;;;;1.90;0.85;;;;;;;;;;5010181;28;20049;-64
2021/12/02 15:04:37;;;;;;;1.70;0.60;;;;;;;;;;5008276;28;20056;-61
2021/12/02 15:07:14;;;;;;;2.63;0.80;;;;;;;;;;5007653;28;20065;-61
2021/12/02 15:09:48;;;;;;;3.03;1.27;;;;;;;;;;5007146;28;20050;-61